Time;durP1;ratioP1;P1;durP2;ratioP2;P2;SDS_P1;SDS_P2;PMS_P1;PMS_P2;Temp;Humidity;BMP_temperature;BMP_pressure;BME280_temperature;BME280_humidity;BME280_pressure;Samples;Min_cycle;Max_cycle;Signal;HPM_P1;HPM_P2
2023/05/14 00:02:08;;;;;;;31.55;17.10;;;;;;;8.98;100.00;102225.63;5134431;27;20140;-77
2023/05/14 00:04:34;;;;;;;28.58;16.85;;;;;;;8.96;100.00;102222.25;5135269;27;20478;-77
2023/05/14 00:06:59;;;;;;;30.30;17.42;;;;;;;8.93;100.00;102225.94;5134550;27;20402;-77
2023/05/14 00:09:25;;;;;;;31.63;17.45;;;;;;;8.91;100.00;102219.00;5134594;27;20083;-78
2023/05/14 00:11:50;;;;;;;28.08;15.85;;;;;;;8.87;100.00;102215.69;5134532;27;20027;-77
2023/05/14 00:14:16;;;;;;;37.35;18.90;;;;;;;8.88;100.00;102219.19;5133115;27;20047;-77
2023/05/14 00:16:41;;;;;;;31.65;16.95;;;;;;;8.86;100.00;102213.97;5134458;27;20027;-77
2023/05/14 00:19:07;;;;;;;28.52;16.42;;;;;;;8.85;100.00;102200.78;5134060;27;20439;-77
2023/05/14 00:21:32;;;;;;;33.25;17.15;;;;;;;8.82;100.00;102200.06;5133659;27;20112;-77
2023/05/14 00:23:58;;;;;;;25.65;15.77;;;;;;;8.78;100.00;102201.19;5133591;27;20451;-77
2023/05/14 00:26:23;;;;;;;28.17;15.85;;;;;;;8.78;100.00;102203.00;5133572;27;20413;-77
2023/05/14 00:28:49;;;;;;;27.83;16.63;;;;;;;8.77;100.00;102202.13;5133875;27;20122;-78
2023/05/14 00:31:14;;;;;;;27.83;15.98;;;;;;;8.82;100.00;102204.47;5133905;27;20035;-77
2023/05/14 00:33:40;;;;;;;29.05;17.63;;;;;;;8.81;100.00;102200.16;5134208;27;20023;-76
2023/05/14 00:36:06;;;;;;;31.02;16.73;;;;;;;8.86;100.00;102205.16;5133458;27;20555;-77
2023/05/14 00:38:32;;;;;;;35.42;17.40;;;;;;;8.86;100.00;102200.69;5134711;27;20048;-76
2023/05/14 00:40:57;;;;;;;31.23;17.90;;;;;;;8.84;100.00;102202.59;5133871;27;20027;-76
2023/05/14 00:43:24;;;;;;;37.25;17.30;;;;;;;8.82;100.00;102194.75;5134195;27;20035;-76
2023/05/14 00:45:50;;;;;;;32.45;17.77;;;;;;;8.80;100.00;102188.66;5134181;27;20035;-77
2023/05/14 00:48:16;;;;;;;37.53;19.30;;;;;;;8.78;100.00;102187.91;5133629;27;20136;-77
2023/05/14 00:50:43;;;;;;;40.95;18.27;;;;;;;8.77;100.00;102186.19;5133331;27;20049;-77
2023/05/14 00:53:09;;;;;;;36.08;18.63;;;;;;;8.79;100.00;102186.09;5133506;27;20023;-77
2023/05/14 00:55:39;;;;;;;35.75;18.33;;;;;;;8.78;100.00;102190.56;5133318;27;20039;-77
2023/05/14 00:58:14;;;;;;;36.50;18.48;;;;;;;8.77;100.00;102180.03;5133942;27;20122;-77
2023/05/14 01:00:40;;;;;;;44.85;19.85;;;;;;;8.72;100.00;102174.16;5134188;27;20027;-77
2023/05/14 01:03:07;;;;;;;32.53;17.90;;;;;;;8.71;100.00;102175.13;5133602;27;20051;-77
2023/05/14 01:05:37;;;;;;;32.97;18.75;;;;;;;8.68;100.00;102176.16;5132579;28;20032;-77
2023/05/14 01:08:19;;;;;;;38.33;19.02;;;;;;;8.70;100.00;102186.66;5133125;27;20058;-76
2023/05/14 01:10:51;;;;;;;41.25;19.15;;;;;;;8.69;100.00;102195.56;5134357;27;20027;-76
2023/05/14 01:13:36;;;;;;;37.03;20.30;;;;;;;8.68;100.00;102183.28;5133767;27;20091;-76
2023/05/14 01:16:03;;;;;;;44.88;19.25;;;;;;;8.68;100.00;102188.56;5133579;27;20065;-76
2023/05/14 01:18:31;;;;;;;40.63;18.75;;;;;;;8.65;100.00;102186.94;5132392;28;20015;-76
2023/05/14 01:20:56;;;;;;;45.90;18.85;;;;;;;8.68;100.00;102181.47;5133335;27;20055;-76
2023/05/14 01:23:22;;;;;;;37.40;18.85;;;;;;;8.65;100.00;102174.53;5133037;27;20034;-76
2023/05/14 01:25:47;;;;;;;37.38;18.58;;;;;;;8.60;100.00;102170.47;5133283;27;20035;-76
2023/05/14 01:28:17;;;;;;;33.10;17.00;;;;;;;8.56;100.00;102172.44;5114338;28;20131;-77
2023/05/14 01:30:50;;;;;;;33.00;18.50;;;;;;;8.57;100.00;102182.13;5132767;27;20055;-77
2023/05/14 01:33:18;;;;;;;35.58;17.70;;;;;;;8.55;100.00;102176.03;5133253;27;20050;-77
2023/05/14 01:35:44;;;;;;;49.20;18.90;;;;;;;8.54;100.00;102173.47;5132921;27;20031;-76
2023/05/14 01:38:12;;;;;;;40.25;18.33;;;;;;;8.50;100.00;102171.97;5132823;27;20031;-76
2023/05/14 01:40:38;;;;;;;37.13;17.27;;;;;;;8.43;100.00;102164.38;5133222;27;20031;-76
2023/05/14 01:43:04;;;;;;;32.20;16.20;;;;;;;8.36;100.00;102167.44;5132987;27;20336;-78
2023/05/14 01:45:33;;;;;;;30.67;16.05;;;;;;;8.28;100.00;102162.59;5133504;27;20121;-76
2023/05/14 01:47:58;;;;;;;32.63;16.67;;;;;;;8.21;100.00;102161.25;5134108;27;20049;-77
2023/05/14 01:50:24;;;;;;;33.63;17.08;;;;;;;8.14;100.00;102152.00;5137372;27;20118;-76
2023/05/14 01:52:52;;;;;;;35.72;16.65;;;;;;;8.11;100.00;102158.31;5137208;27;20122;-76
2023/05/14 01:55:17;;;;;;;33.58;16.38;;;;;;;8.04;100.00;102155.16;5137091;27;20042;-77
2023/05/14 01:57:43;;;;;;;30.27;16.42;;;;;;;8.02;100.00;102156.22;5136461;27;20027;-77
2023/05/14 02:00:08;;;;;;;27.88;15.05;;;;;;;7.98;100.00;102163.47;5136069;27;20104;-77
2023/05/14 02:02:34;;;;;;;32.80;17.98;;;;;;;7.98;100.00;102163.47;5136966;27;20027;-77
2023/05/14 02:04:59;;;;;;;35.75;17.35;;;;;;;8.03;100.00;102164.09;5135759;27;20057;-77
2023/05/14 02:07:25;;;;;;;40.45;19.67;;;;;;;8.11;100.00;102163.63;5136871;27;20035;-77
2023/05/14 02:09:50;;;;;;;40.60;18.45;;;;;;;8.14;100.00;102163.44;5137221;27;20031;-77
2023/05/14 02:12:15;;;;;;;37.08;17.80;;;;;;;8.17;100.00;102159.75;5136810;27;20027;-77
2023/05/14 02:14:41;;;;;;;39.70;18.20;;;;;;;8.19;100.00;102163.16;5136874;27;20024;-76
2023/05/14 02:17:06;;;;;;;38.65;19.50;;;;;;;8.20;100.00;102151.63;5136740;27;20118;-77
2023/05/14 02:19:31;;;;;;;41.67;19.55;;;;;;;8.24;100.00;102156.66;5135689;27;20351;-77
2023/05/14 02:21:59;;;;;;;39.50;19.42;;;;;;;8.25;100.00;102157.50;5137052;27;20031;-77
2023/05/14 02:24:24;;;;;;;32.85;17.23;;;;;;;8.25;100.00;102154.84;5137598;27;20035;-77
2023/05/14 02:26:49;;;;;;;48.00;19.05;;;;;;;8.29;100.00;102153.72;5137359;27;20366;-76
2023/05/14 02:29:15;;;;;;;37.15;18.38;;;;;;;8.31;100.00;102143.88;5136493;27;20033;-77
2023/05/14 02:31:40;;;;;;;37.88;17.75;;;;;;;8.33;100.00;102147.28;5136482;27;20130;-76
2023/05/14 02:34:05;;;;;;;42.45;18.58;;;;;;;8.31;100.00;102135.91;5136192;27;20076;-76
2023/05/14 02:36:31;;;;;;;39.65;18.27;;;;;;;8.33;100.00;102141.13;5136424;27;20027;-76
2023/05/14 02:38:58;;;;;;;38.65;18.25;;;;;;;8.35;100.00;102141.91;5137002;27;20024;-76
2023/05/14 02:41:23;;;;;;;53.53;18.35;;;;;;;8.34;100.00;102138.38;5136769;27;20027;-76
2023/05/14 02:43:49;;;;;;;43.50;18.05;;;;;;;8.32;100.00;102142.09;5136583;27;20030;-76
2023/05/14 02:46:14;;;;;;;27.98;16.20;;;;;;;8.31;100.00;102127.94;5136104;27;20030;-77
2023/05/14 02:48:39;;;;;;;35.80;17.05;;;;;;;8.31;100.00;102130.59;5136326;27;20031;-77
2023/05/14 02:51:06;;;;;;;36.42;15.63;;;;;;;8.28;100.00;102130.78;5136121;27;20027;-77
2023/05/14 02:53:31;;;;;;;36.28;15.93;;;;;;;8.24;100.00;102127.47;5135916;27;20521;-77
2023/05/14 02:55:57;;;;;;;39.17;17.17;;;;;;;8.21;100.00;102127.66;5136138;27;20032;-77
2023/05/14 02:58:22;;;;;;;34.65;15.00;;;;;;;8.19;100.00;102134.84;5135442;27;20077;-77
2023/05/14 03:00:47;;;;;;;36.38;17.52;;;;;;;8.20;100.00;102127.75;5135634;27;20034;-77
2023/05/14 03:03:13;;;;;;;33.58;15.73;;;;;;;8.17;100.00;102126.13;5135646;27;20471;-78
2023/05/14 03:05:39;;;;;;;34.55;16.63;;;;;;;8.18;100.00;102124.34;5135613;27;20043;-77
2023/05/14 03:08:05;;;;;;;46.50;16.55;;;;;;;8.17;100.00;102130.59;5136267;27;20080;-77
2023/05/14 03:10:31;;;;;;;43.03;18.83;;;;;;;8.19;100.00;102124.25;5136350;27;20463;-77
2023/05/14 03:12:57;;;;;;;38.72;17.67;;;;;;;8.22;100.00;102129.34;5136547;27;20027;-77
2023/05/14 03:15:22;;;;;;;45.22;19.00;;;;;;;8.22;100.00;102123.22;5135787;27;20439;-77
2023/05/14 03:17:48;;;;;;;35.50;16.67;;;;;;;8.21;100.00;102132.97;5135829;27;20374;-77
2023/05/14 03:20:13;;;;;;;34.15;15.90;;;;;;;8.17;100.00;102118.19;5135524;27;20508;-77
2023/05/14 03:22:38;;;;;;;34.38;17.08;;;;;;;8.12;100.00;102115.81;5135531;27;20355;-77
2023/05/14 03:25:04;;;;;;;37.15;17.23;;;;;;;8.10;100.00;102109.72;5135325;27;20111;-77
2023/05/14 03:27:30;;;;;;;39.10;17.63;;;;;;;8.10;100.00;102108.88;5135357;27;20027;-77
2023/05/14 03:29:55;;;;;;;32.78;16.08;;;;;;;8.09;100.00;102112.47;5135393;27;20394;-77
2023/05/14 03:32:21;;;;;;;36.15;17.70;;;;;;;8.11;100.00;102110.59;5135342;27;20055;-78
2023/05/14 03:34:46;;;;;;;44.13;17.48;;;;;;;8.14;100.00;102106.94;5135847;27;20080;-77
2023/05/14 03:37:11;;;;;;;46.28;18.77;;;;;;;8.16;100.00;102108.50;5135005;27;20027;-77
2023/05/14 03:39:37;;;;;;;46.75;17.77;;;;;;;8.18;100.00;102117.25;5135239;27;20027;-77
2023/05/14 03:42:02;;;;;;;38.42;17.58;;;;;;;8.20;100.00;102109.19;5135196;27;20045;-77
2023/05/14 03:44:28;;;;;;;45.80;16.77;;;;;;;8.20;100.00;102110.03;5135373;27;20052;-77
2023/05/14 03:46:53;;;;;;;41.60;17.60;;;;;;;8.19;100.00;102110.97;5135018;27;20027;-77
2023/05/14 03:49:18;;;;;;;42.50;18.75;;;;;;;8.18;100.00;102117.25;5135320;27;20043;-78
2023/05/14 03:51:44;;;;;;;41.42;16.63;;;;;;;8.17;100.00;102120.84;5135013;27;20375;-77
2023/05/14 03:54:09;;;;;;;41.38;17.95;;;;;;;8.14;100.00;102120.19;5134993;27;20463;-77
2023/05/14 03:56:35;;;;;;;41.85;18.85;;;;;;;8.14;100.00;102122.84;5134801;27;20035;-77
2023/05/14 03:59:00;;;;;;;38.40;18.45;;;;;;;8.14;100.00;102126.31;5134880;27;20122;-77
2023/05/14 04:01:25;;;;;;;43.53;20.08;;;;;;;8.15;100.00;102122.75;5135326;27;20023;-76
2023/05/14 04:03:51;;;;;;;44.35;18.25;;;;;;;8.14;100.00;102123.69;5135048;27;20129;-76
2023/05/14 04:06:16;;;;;;;39.65;19.20;;;;;;;8.11;100.00;102122.06;5133761;27;20066;-76
2023/05/14 04:08:41;;;;;;;45.38;19.10;;;;;;;8.11;100.00;102123.84;5134734;27;20360;-76
2023/05/14 04:11:07;;;;;;;51.28;20.63;;;;;;;8.12;100.00;102117.59;5134143;27;20031;-76
2023/05/14 04:13:32;;;;;;;37.92;18.50;;;;;;;8.13;100.00;102116.66;5134550;27;20037;-77
2023/05/14 04:15:57;;;;;;;40.45;18.13;;;;;;;8.14;100.00;102125.47;5134859;27;20107;-77
2023/05/14 04:18:23;;;;;;;45.03;20.75;;;;;;;8.16;100.00;102124.44;5134395;27;20069;-76
2023/05/14 04:20:49;;;;;;;45.53;19.05;;;;;;;8.17;100.00;102123.50;5134809;27;20035;-76
2023/05/14 04:23:14;;;;;;;56.85;20.05;;;;;;;8.23;100.00;102120.47;5134534;27;20057;-76
2023/05/14 04:25:40;;;;;;;41.65;19.30;;;;;;;8.25;100.00;102118.56;5134154;27;20032;-77
2023/05/14 04:28:05;;;;;;;50.42;21.50;;;;;;;8.27;100.00;102118.47;5134418;27;20490;-76
2023/05/14 04:30:30;;;;;;;50.05;19.77;;;;;;;8.30;100.00;102126.25;5134110;27;20413;-79
2023/05/14 04:32:56;;;;;;;51.72;20.08;;;;;;;8.32;100.00;102123.53;5134183;27;20379;-76
2023/05/14 04:35:21;;;;;;;52.40;21.38;;;;;;;8.39;100.00;102119.53;5133989;27;20034;-77
2023/05/14 04:37:47;;;;;;;52.42;20.30;;;;;;;8.42;100.00;102120.22;5133485;27;20107;-77
2023/05/14 04:40:15;;;;;;;49.42;20.38;;;;;;;8.47;100.00;102123.44;5133865;27;20082;-77
2023/05/14 04:42:41;;;;;;;50.85;21.65;;;;;;;8.53;100.00;102135.50;5133851;27;20031;-77
2023/05/14 04:45:07;;;;;;;50.33;21.60;;;;;;;8.59;100.00;102121.00;5134350;27;20041;-77
2023/05/14 04:47:33;;;;;;;56.17;22.27;;;;;;;8.67;100.00;102115.22;5134234;27;20031;-76
2023/05/14 04:49:58;;;;;;;56.60;23.05;;;;;;;8.72;100.00;102110.47;5134243;27;20031;-79
2023/05/14 04:52:24;;;;;;;57.40;23.08;;;;;;;8.78;100.00;102118.91;5133101;27;20028;-77
2023/05/14 04:54:49;;;;;;;56.25;23.30;;;;;;;8.83;100.00;102115.97;5133933;27;20035;-76
2023/05/14 04:57:15;;;;;;;50.78;22.15;;;;;;;8.86;100.00;102109.63;5133590;27;20487;-76
2023/05/14 04:59:40;;;;;;;58.17;23.33;;;;;;;8.87;100.00;102130.75;5133490;27;20043;-76
2023/05/14 05:02:06;;;;;;;63.80;24.02;;;;;;;8.90;100.00;102121.75;5134316;28;20039;-76
2023/05/14 05:04:31;;;;;;;57.80;23.88;;;;;;;8.93;100.00;102134.81;5133626;27;20146;-76
2023/05/14 05:06:57;;;;;;;68.50;25.67;;;;;;;8.94;100.00;102124.13;5132238;28;20129;-76
2023/05/14 05:09:22;;;;;;;70.20;27.02;;;;;;;8.96;100.00;102129.31;5133755;27;20024;-76
2023/05/14 05:11:47;;;;;;;67.00;26.67;;;;;;;9.01;100.00;102124.56;5133675;27;20114;-78
2023/05/14 05:14:13;;;;;;;58.75;27.48;;;;;;;9.08;100.00;102133.00;5133535;28;20419;-78
2023/05/14 05:16:38;;;;;;;70.32;28.52;;;;;;;9.15;100.00;102136.94;5133556;28;20031;-78
2023/05/14 05:19:04;;;;;;;68.13;28.85;;;;;;;9.25;100.00;102151.34;5133257;27;20053;-76
2023/05/14 05:21:29;;;;;;;63.50;28.02;;;;;;;9.32;100.00;102154.47;5133363;27;20053;-78
2023/05/14 05:23:55;;;;;;;67.72;29.20;;;;;;;9.34;100.00;102158.75;5137326;27;20031;-78
2023/05/14 05:26:21;;;;;;;73.90;30.05;;;;;;;9.35;100.00;102149.81;5138168;27;20039;-79
2023/05/14 05:28:46;;;;;;;60.53;28.33;;;;;;;9.34;100.00;102152.56;5138275;27;20122;-79
2023/05/14 05:31:12;;;;;;;58.47;28.08;;;;;;;9.36;100.00;102145.38;5137109;27;20540;-79
2023/05/14 05:33:38;;;;;;;73.80;29.83;;;;;;;9.40;100.00;102160.13;5137438;27;20081;-79
2023/05/14 05:36:03;;;;;;;57.47;28.33;;;;;;;9.41;100.00;102159.19;5137570;27;20030;-78
2023/05/14 05:38:29;;;;;;;64.85;27.88;;;;;;;9.37;100.00;102155.03;5137039;27;20442;-80
2023/05/14 05:40:54;;;;;;;58.72;28.10;;;;;;;9.42;100.00;102146.75;5136889;27;20038;-78
2023/05/14 05:43:20;;;;;;;59.90;27.00;;;;;;;9.44;100.00;102160.81;5137687;27;20444;-78
2023/05/14 05:45:45;;;;;;;54.90;26.92;;;;;;;9.49;100.00;102159.56;5137308;27;20038;-76
2023/05/14 05:48:10;;;;;;;54.05;27.00;;;;;;;9.55;100.00;102154.78;5137188;27;20049;-79
2023/05/14 05:50:36;;;;;;;62.35;26.45;;;;;;;9.59;100.00;102151.81;5137383;27;20030;-79
2023/05/14 05:53:01;;;;;;;50.67;25.65;;;;;;;9.68;100.00;102166.31;5135655;27;20027;-77
2023/05/14 05:55:28;;;;;;;45.90;24.67;;;;;;;9.71;100.00;102153.66;5137089;27;20055;-76
2023/05/14 05:57:53;;;;;;;51.63;23.95;;;;;;;9.80;100.00;102154.03;5136144;27;20340;-76
2023/05/14 06:00:19;;;;;;;45.60;22.98;;;;;;;9.88;100.00;102157.88;5135867;27;20037;-77
2023/05/14 06:02:45;;;;;;;37.33;20.95;;;;;;;9.93;100.00;102151.38;5136875;27;20031;-76
2023/05/14 06:05:11;;;;;;;29.10;17.98;;;;;;;10.03;100.00;102156.00;5137643;27;20047;-76
2023/05/14 06:07:37;;;;;;;30.90;18.10;;;;;;;10.16;100.00;102150.69;5137358;27;20035;-77
2023/05/14 06:10:02;;;;;;;23.50;15.00;;;;;;;10.34;100.00;102153.09;5137680;27;20027;-77
2023/05/14 06:12:28;;;;;;;22.63;13.65;;;;;;;10.43;100.00;102149.78;5136744;27;20042;-76
2023/05/14 06:14:54;;;;;;;22.73;13.23;;;;;;;10.57;100.00;102152.34;5137128;27;20079;-77
2023/05/14 06:17:20;;;;;;;30.52;12.30;;;;;;;10.72;100.00;102162.91;5137518;27;20039;-78
2023/05/14 06:19:46;;;;;;;18.50;12.65;;;;;;;10.86;100.00;102149.44;5136378;27;20027;-78
2023/05/14 06:22:11;;;;;;;21.67;13.18;;;;;;;10.97;100.00;102150.50;5136623;27;20124;-77
2023/05/14 06:24:37;;;;;;;27.60;13.25;;;;;;;11.01;100.00;102150.16;5137217;27;20027;-78
2023/05/14 06:27:02;;;;;;;21.48;13.52;;;;;;;11.05;100.00;102154.31;5136754;27;20035;-78
2023/05/14 06:29:27;;;;;;;23.45;12.88;;;;;;;11.05;100.00;102156.13;5136901;27;20115;-78
2023/05/14 06:31:53;;;;;;;23.42;12.98;;;;;;;11.09;100.00;102157.59;5136442;27;20027;-76
2023/05/14 06:34:18;;;;;;;30.42;13.60;;;;;;;11.12;100.00;102152.03;5135996;27;20038;-77
2023/05/14 06:36:44;;;;;;;21.15;12.52;;;;;;;11.17;100.00;102160.56;5136513;27;20027;-76
2023/05/14 06:39:09;;;;;;;20.90;11.98;;;;;;;11.29;100.00;102159.66;5136430;27;20035;-76
2023/05/14 06:41:34;;;;;;;24.85;11.95;;;;;;;11.41;100.00;102157.94;5135646;27;20073;-78
2023/05/14 06:44:00;;;;;;;16.08;10.70;;;;;;;11.52;100.00;102148.28;5136496;27;20039;-77
2023/05/14 06:46:25;;;;;;;32.00;11.10;;;;;;;11.68;100.00;102143.53;5135962;27;20057;-77
2023/05/14 06:48:50;;;;;;;15.30;9.70;;;;;;;11.74;100.00;102145.72;5135954;27;20067;-77
2023/05/14 06:51:16;;;;;;;17.45;10.43;;;;;;;11.85;100.00;102144.06;5135084;27;20027;-77
2023/05/14 06:53:41;;;;;;;18.45;9.80;;;;;;;11.90;100.00;102136.59;5136022;27;20088;-78
2023/05/14 06:56:06;;;;;;;17.40;9.73;;;;;;;11.88;100.00;102139.34;5136413;27;20058;-76
2023/05/14 06:58:32;;;;;;;17.15;8.70;;;;;;;12.02;100.00;102140.16;5135849;27;20443;-77
2023/05/14 07:00:57;;;;;;;20.73;8.85;;;;;;;12.20;100.00;102140.59;5136330;27;20052;-77
2023/05/14 07:03:23;;;;;;;17.52;8.68;;;;;;;12.40;100.00;102139.03;5135904;27;20498;-77
2023/05/14 07:05:48;;;;;;;15.73;8.70;;;;;;;12.61;100.00;102139.16;5136052;27;20461;-76
2023/05/14 07:08:14;;;;;;;10.70;7.88;;;;;;;12.59;100.00;102133.94;5135700;27;20062;-77
2023/05/14 07:10:39;;;;;;;21.50;8.52;;;;;;;12.62;100.00;102136.38;5136211;27;20027;-77
2023/05/14 07:13:05;;;;;;;17.17;8.60;;;;;;;12.76;100.00;102132.59;5135520;27;20047;-77
2023/05/14 07:15:30;;;;;;;17.27;8.05;;;;;;;13.03;100.00;102132.25;5135721;27;20032;-76
2023/05/14 07:17:56;;;;;;;22.25;7.90;;;;;;;13.25;100.00;102143.84;5135830;27;20031;-77
2023/05/14 07:20:22;;;;;;;17.33;7.00;;;;;;;13.42;100.00;102121.13;5136123;27;20444;-78
2023/05/14 07:22:48;;;;;;;16.17;7.10;;;;;;;13.28;100.00;102129.41;5134172;27;20037;-77
2023/05/14 07:25:14;;;;;;;14.93;6.80;;;;;;;13.19;100.00;102131.84;5135567;27;20115;-77
2023/05/14 07:27:39;;;;;;;17.80;7.18;;;;;;;13.13;100.00;102136.84;5135715;27;20421;-78
2023/05/14 07:30:07;;;;;;;17.88;7.68;;;;;;;13.03;100.00;102134.91;5135060;27;20023;-77
2023/05/14 07:32:32;;;;;;;14.77;8.38;;;;;;;13.05;100.00;102134.78;5135092;27;20036;-78
2023/05/14 07:34:58;;;;;;;14.32;7.53;;;;;;;13.15;100.00;102134.88;5133714;27;20037;-78
2023/05/14 07:37:24;;;;;;;16.20;7.97;;;;;;;13.13;100.00;102127.00;5135059;27;20034;-79
2023/05/14 07:39:53;;;;;;;20.42;7.57;;;;;;;13.12;100.00;102140.47;5134849;27;20062;-80
2023/05/14 07:42:18;;;;;;;15.10;6.97;;;;;;;13.08;100.00;102134.53;5135180;27;20027;-76
2023/05/14 07:44:44;;;;;;;10.90;7.00;;;;;;;13.12;100.00;102124.44;5134752;27;20066;-76
2023/05/14 07:47:10;;;;;;;16.80;7.22;;;;;;;13.31;100.00;102126.47;5135001;27;20088;-77
2023/05/14 07:49:35;;;;;;;11.90;6.70;;;;;;;13.65;100.00;102121.06;5134406;27;20026;-77
2023/05/14 07:52:01;;;;;;;19.50;7.50;;;;;;;13.93;100.00;102119.56;5134806;27;20031;-77
2023/05/14 07:54:26;;;;;;;18.92;7.05;;;;;;;13.92;100.00;102124.06;5134920;27;20035;-77
2023/05/14 07:56:52;;;;;;;17.48;6.72;;;;;;;13.87;100.00;102118.25;5134741;27;20462;-77
2023/05/14 07:59:17;;;;;;;17.50;5.45;;;;;;;13.92;100.00;102124.06;5134743;27;20027;-76
2023/05/14 08:01:43;;;;;;;19.70;6.45;;;;;;;14.00;100.00;102127.91;5134692;27;20382;-76
2023/05/14 08:04:10;;;;;;;17.88;6.78;;;;;;;14.34;100.00;102117.84;5134966;27;20047;-76
2023/05/14 08:06:36;;;;;;;12.25;5.60;;;;;;;14.80;100.00;102123.72;5135343;27;20034;-76
2023/05/14 08:09:04;;;;;;;13.20;5.95;;;;;;;15.02;100.00;102117.31;5135190;27;20053;-77
2023/05/14 08:11:29;;;;;;;12.60;5.57;;;;;;;15.34;100.00;102122.44;5134860;27;20031;-77
2023/05/14 08:13:55;;;;;;;12.65;4.93;;;;;;;15.33;100.00;102125.25;5134954;27;20122;-80
2023/05/14 08:16:21;;;;;;;12.70;5.35;;;;;;;15.24;100.00;102118.91;5134641;27;20142;-77
2023/05/14 08:18:47;;;;;;;16.10;5.45;;;;;;;15.24;100.00;102116.25;5135059;27;20481;-77
2023/05/14 08:21:12;;;;;;;16.50;5.05;;;;;;;15.32;100.00;102116.38;5134526;27;20032;-76
2023/05/14 08:23:37;;;;;;;24.63;5.75;;;;;;;15.28;100.00;102111.44;5134602;27;20028;-77
2023/05/14 08:26:03;;;;;;;20.88;4.97;;;;;;;15.48;100.00;102109.59;5134879;27;20031;-77
2023/05/14 08:28:28;;;;;;;13.63;4.90;;;;;;;15.57;100.00;102103.41;5134941;27;20067;-77
2023/05/14 08:30:54;;;;;;;15.40;5.80;;;;;;;15.45;100.00;102108.06;5134704;27;20450;-77
2023/05/14 08:33:19;;;;;;;13.20;5.22;;;;;;;15.30;100.00;102106.75;5134189;27;20031;-76
2023/05/14 08:35:44;;;;;;;14.30;5.68;;;;;;;15.40;100.00;102104.94;5133938;27;20046;-77
2023/05/14 08:38:10;;;;;;;15.73;5.32;;;;;;;15.28;100.00;102106.06;5134104;27;20123;-75
2023/05/14 08:40:35;;;;;;;16.00;5.45;;;;;;;15.43;100.00;102106.50;5134424;27;20042;-76
2023/05/14 08:43:01;;;;;;;16.80;5.60;;;;;;;15.47;100.00;102103.41;5134023;27;20414;-79
2023/05/14 08:45:32;;;;;;;13.60;5.13;;;;;;;15.62;100.00;102106.50;5134749;27;20035;-74
2023/05/14 08:48:00;;;;;;;14.07;4.53;;;;;;;15.65;100.00;102098.19;5134090;27;20091;-79
2023/05/14 08:50:26;;;;;;;9.80;4.15;;;;;;;15.72;100.00;102103.84;5133740;27;20031;-76
2023/05/14 08:52:52;;;;;;;11.30;4.32;;;;;;;15.88;100.00;102094.38;5134001;27;20478;-76
2023/05/14 08:55:17;;;;;;;10.95;4.18;;;;;;;15.94;100.00;102088.44;5134483;27;20027;-75
2023/05/14 08:57:43;;;;;;;16.08;4.82;;;;;;;16.25;100.00;102085.53;5133194;27;20330;-78
2023/05/14 09:00:12;;;;;;;11.90;4.03;;;;;;;16.40;100.00;102081.38;5134133;27;20031;-76
2023/05/14 09:02:43;;;;;;;10.35;4.10;;;;;;;16.75;100.00;102072.59;5133913;27;20459;-78
2023/05/14 09:05:09;;;;;;;14.52;4.38;;;;;;;17.31;100.00;102077.09;5134174;27;20153;-76
2023/05/14 09:07:35;;;;;;;13.07;3.92;;;;;;;17.83;100.00;102073.66;5133913;27;20114;-76
2023/05/14 09:10:01;;;;;;;10.50;3.55;;;;;;;17.82;100.00;102086.25;5133712;27;20110;-75
2023/05/14 09:12:27;;;;;;;9.13;3.90;;;;;;;18.31;100.00;102094.69;5133762;27;20031;-75
2023/05/14 09:14:52;;;;;;;14.88;4.72;;;;;;;18.58;100.00;102084.72;5133776;27;20413;-75
2023/05/14 09:17:18;;;;;;;15.00;4.13;;;;;;;19.12;100.00;102083.56;5134126;27;20038;-77
2023/05/14 09:19:48;;;;;;;14.00;4.50;;;;;;;19.23;100.00;102077.88;5133734;27;20059;-76
2023/05/14 09:22:16;;;;;;;15.75;4.40;;;;;;;19.00;100.00;102067.72;5133803;27;20027;-76
2023/05/14 09:24:42;;;;;;;9.70;3.83;;;;;;;19.31;100.00;102068.94;5132834;28;20042;-75
2023/05/14 09:27:09;;;;;;;15.73;4.28;;;;;;;19.52;97.68;102074.69;5133455;28;20447;-76
2023/05/14 09:29:35;;;;;;;14.57;3.88;;;;;;;19.93;91.02;102073.88;5134011;28;20031;-78
2023/05/14 09:32:04;;;;;;;12.35;4.22;;;;;;;19.72;94.02;102077.91;5133905;27;20039;-77
2023/05/14 09:34:32;;;;;;;13.73;4.13;;;;;;;19.76;92.86;102075.69;5133478;27;20031;-77
2023/05/14 09:37:03;;;;;;;16.05;4.35;;;;;;;19.99;96.59;102077.72;5133400;27;20032;-75
2023/05/14 09:39:29;;;;;;;;;;;;;;;19.97;91.00;102074.34;5133670;27;20099;-76
2023/05/14 09:41:55;;;;;;;9.50;3.78;;;;;;;19.86;93.09;102068.28;5133553;27;20363;-77
2023/05/14 09:44:21;;;;;;;9.48;3.75;;;;;;;20.14;84.15;102067.91;5133329;27;20028;-76
2023/05/14 09:46:47;;;;;;;10.30;4.50;;;;;;;20.26;88.65;102068.38;5133373;27;20027;-76
2023/05/14 09:49:13;;;;;;;14.68;4.53;;;;;;;20.46;86.25;102067.97;5134017;27;20086;-76
2023/05/14 09:51:39;;;;;;;14.18;4.60;;;;;;;20.74;82.93;102065.69;5133455;27;20031;-76
2023/05/14 09:54:05;;;;;;;8.75;3.75;;;;;;;20.39;86.47;102065.97;5132183;28;20035;-77
2023/05/14 09:56:35;;;;;;;14.30;4.13;;;;;;;20.42;85.20;102057.53;5133341;27;20035;-76
2023/05/14 09:59:01;;;;;;;13.82;4.22;;;;;;;20.71;80.99;102058.78;5133308;27;20023;-75
2023/05/14 10:01:29;;;;;;;12.13;4.22;;;;;;;20.83;80.37;102063.78;5133142;27;20023;-75
2023/05/14 10:03:55;;;;;;;13.13;4.13;;;;;;;21.24;73.21;102058.09;5133262;27;20048;-75
2023/05/14 10:06:32;;;;;;;12.82;4.50;;;;;;;21.03;72.08;102059.59;5166474;27;20030;-76
2023/05/14 10:09:01;;;;;;;9.00;3.85;;;;;;;20.91;72.61;102067.25;5133941;27;20039;-75
2023/05/14 10:11:35;;;;;;;7.63;3.97;;;;;;;20.58;73.47;102055.75;5136516;27;20449;-75
2023/05/14 10:14:06;;;;;;;13.75;4.47;;;;;;;20.20;78.03;102052.88;5136503;27;20130;-76
2023/05/14 10:16:34;;;;;;;10.55;4.43;;;;;;;20.45;80.89;102048.19;5137476;27;20037;-76
2023/05/14 10:19:06;;;;;;;10.27;4.47;;;;;;;20.87;75.19;102041.63;5136619;27;20019;-76
2023/05/14 10:21:34;;;;;;;10.80;4.10;;;;;;;21.38;73.37;102035.66;5136749;27;20459;-78
2023/05/14 10:24:00;;;;;;;11.30;3.60;;;;;;;21.26;71.54;102047.97;5135339;27;20375;-79
2023/05/14 10:26:27;;;;;;;9.15;3.53;;;;;;;21.44;78.10;102039.53;5136816;27;20029;-77
2023/05/14 10:28:53;;;;;;;11.20;4.25;;;;;;;21.80;72.91;102042.44;5136313;27;20035;-76
2023/05/14 10:31:22;;;;;;;9.77;4.10;;;;;;;21.68;70.63;102041.19;5136382;27;20033;-76
2023/05/14 10:33:49;;;;;;;10.13;4.03;;;;;;;21.58;67.45;102041.44;5136546;27;20436;-77
2023/05/14 10:36:16;;;;;;;8.77;3.65;;;;;;;21.83;71.89;102036.63;5136364;27;20038;-77
2023/05/14 10:38:42;;;;;;;13.77;4.55;;;;;;;22.02;69.28;102029.00;5137366;27;20035;-76
2023/05/14 10:41:16;;;;;;;12.02;3.92;;;;;;;22.27;68.04;102031.41;5136447;27;20385;-77
2023/05/14 10:43:43;;;;;;;12.52;4.13;;;;;;;22.56;68.07;102029.72;5136497;27;20023;-77
2023/05/14 10:46:10;;;;;;;8.20;3.55;;;;;;;22.70;66.86;102026.16;5136094;27;20066;-78
2023/05/14 10:48:36;;;;;;;11.55;3.70;;;;;;;22.54;65.39;102022.63;5136254;27;20455;-78
2023/05/14 10:51:02;;;;;;;11.23;3.35;;;;;;;21.99;69.63;102018.53;5136136;27;20026;-77
2023/05/14 10:53:41;;;;;;;11.70;3.60;;;;;;;21.90;68.37;102019.63;5136857;27;20027;-78
2023/05/14 10:56:11;;;;;;;15.48;3.45;;;;;;;21.63;69.69;102019.22;5136420;27;20031;-77
2023/05/14 10:58:40;;;;;;;13.00;4.03;;;;;;;21.45;72.12;102023.09;5136388;27;20044;-77
2023/05/14 11:01:07;;;;;;;14.18;3.67;;;;;;;21.45;71.26;102016.81;5136089;27;20023;-76
2023/05/14 11:03:39;;;;;;;11.52;3.53;;;;;;;21.54;73.99;102012.22;5135611;27;20387;-75
2023/05/14 11:06:05;;;;;;;13.32;3.58;;;;;;;22.18;68.62;102009.84;5117949;27;20027;-75